Time;durP1;ratioP1;P1;durP2;ratioP2;P2;SDS_P1;SDS_P2;PMS_P1;PMS_P2;Temp;Humidity;BMP_temperature;BMP_pressure;BME280_temperature;BME280_humidity;BME280_pressure;Samples;Min_cycle;Max_cycle;Signal;HPM_P1;HPM_P2
2022/05/03 00:00:09;;;;;;;10.98;8.18;;;9.60;30.10;;;;;;4953306;28;35996;-77
2022/05/03 00:02:47;;;;;;;9.95;8.02;;;9.60;27.50;;;;;;4969125;28;34223;-77
2022/05/03 00:05:36;;;;;;;11.73;8.32;;;9.60;28.80;;;;;;4969268;28;34522;-77
2022/05/03 00:08:09;;;;;;;11.35;8.27;;;9.60;29.50;;;;;;4971628;28;34146;-77
2022/05/03 00:10:53;;;;;;;11.40;8.80;;;9.60;28.00;;;;;;4953452;28;35625;-77
2022/05/03 00:13:27;;;;;;;9.70;7.85;;;9.60;28.80;;;;;;4969161;28;34388;-77
2022/05/03 00:15:55;;;;;;;10.63;8.80;;;9.60;28.40;;;;;;4968934;28;34527;-77
2022/05/03 00:18:21;;;;;;;10.63;7.93;;;9.60;28.00;;;;;;4969076;28;34500;-77
2022/05/03 00:20:49;;;;;;;11.07;8.93;;;9.60;27.80;;;;;;4968425;28;35841;-77
2022/05/03 00:23:15;;;;;;;12.73;8.43;;;9.60;28.00;;;;;;4986476;28;34095;-77
2022/05/03 00:25:42;;;;;;;12.77;8.15;;;9.60;28.00;;;;;;4968779;28;34151;-77
2022/05/03 00:28:09;;;;;;;10.30;8.15;;;9.60;28.00;;;;;;4951899;28;34534;-76
2022/05/03 00:30:37;;;;;;;11.75;8.77;;;9.50;28.10;;;;;;4968586;28;35763;-77
2022/05/03 00:33:05;;;;;;;11.88;8.52;;;9.50;28.20;;;;;;4968978;28;34275;-77
2022/05/03 00:35:32;;;;;;;10.05;7.93;;;9.50;28.10;;;;;;4969128;28;34168;-77
2022/05/03 00:37:57;;;;;;;9.93;7.90;;;9.50;28.20;;;;;;4968773;28;34008;-77
2022/05/03 00:40:25;;;;;;;11.65;8.27;;;9.50;28.40;;;;;;4968649;28;36333;-77
2022/05/03 00:43:11;;;;;;;9.40;8.20;;;9.50;28.70;;;;;;4968425;28;34217;-77
2022/05/03 00:45:56;;;;;;;10.75;8.50;;;9.40;30.80;;;;;;4968222;28;34211;-77
2022/05/03 00:48:47;;;;;;;10.38;8.32;;;9.40;32.00;;;;;;4968588;28;34479;-76
2022/05/03 00:51:18;;;;;;;10.60;8.75;;;9.40;31.90;;;;;;4959570;28;36279;-77
2022/05/03 00:54:14;;;;;;;9.70;8.25;;;9.40;29.50;;;;;;4983278;28;34069;-77
2022/05/03 00:57:03;;;;;;;10.70;8.27;;;9.40;31.70;;;;;;4985757;28;34091;-77
2022/05/03 00:59:52;;;;;;;11.60;8.68;;;9.40;30.50;;;;;;4954283;28;34195;-76
2022/05/03 01:02:27;;;;;;;10.40;8.15;;;9.40;30.10;;;;;;4985201;28;34983;-77
2022/05/03 01:05:09;;;;;;;11.38;8.68;;;9.40;29.40;;;;;;4960946;28;33977;-76
2022/05/03 01:07:47;;;;;;;12.55;8.48;;;9.40;31.10;;;;;;4952348;28;34230;-77
2022/05/03 01:10:43;;;;;;;10.68;8.60;;;9.40;28.90;;;;;;4968241;28;34373;-77
2022/05/03 01:13:28;;;;;;;11.40;8.55;;;9.40;31.50;;;;;;4985840;28;34742;-77
2022/05/03 01:16:03;;;;;;;10.90;8.82;;;9.40;30.30;;;;;;4953951;28;34050;-77
2022/05/03 01:18:52;;;;;;;11.45;8.32;;;9.40;30.40;;;;;;4968516;28;34144;-77
2022/05/03 01:21:39;;;;;;;10.63;9.02;;;9.40;31.80;;;;;;4968011;28;34182;-77
2022/05/03 01:24:31;;;;;;;12.65;9.18;;;9.50;31.30;;;;;;4951786;28;36515;-77
2022/05/03 01:27:26;;;;;;;13.43;8.98;;;9.50;32.30;;;;;;4977778;28;34036;-76
2022/05/03 01:29:52;;;;;;;12.70;8.82;;;9.50;32.40;;;;;;4984990;28;34152;-77
2022/05/03 01:32:21;;;;;;;11.70;9.30;;;9.50;29.40;;;;;;4952179;28;34153;-77
2022/05/03 01:34:47;;;;;;;13.45;9.13;;;9.50;29.40;;;;;;4984724;28;34245;-77
2022/05/03 01:37:36;;;;;;;12.35;8.82;;;9.50;29.30;;;;;;4967470;28;34409;-77
2022/05/03 01:40:10;;;;;;;10.85;8.65;;;9.60;30.50;;;;;;4953556;28;34211;-77
2022/05/03 01:43:02;;;;;;;11.48;9.23;;;9.60;29.90;;;;;;4967605;28;34216;-77
2022/05/03 01:45:40;;;;;;;12.90;8.77;;;9.70;32.00;;;;;;4967155;28;36518;-77
2022/05/03 01:50:18;;;;;;;12.60;9.10;;;9.70;30.50;;;;;;4951356;28;34228;-77
2022/05/03 01:51:31;;;;;;;9.85;8.52;;;9.70;31.00;;;;;;4956733;28;34219;-77
2022/05/03 01:54:19;;;;;;;12.32;8.98;;;9.70;30.90;;;;;;4945872;28;34262;-76
2022/05/03 01:57:09;;;;;;;13.73;9.13;;;9.70;31.80;;;;;;4967435;28;35943;-77
2022/05/03 02:00:05;;;;;;;12.50;9.77;;;9.80;32.30;;;;;;4951412;28;34087;-77
2022/05/03 02:03:01;;;;;;;9.80;7.88;;;9.80;33.10;;;;;;4967242;28;34197;-76
2022/05/03 02:05:55;;;;;;;12.73;9.43;;;9.90;33.40;;;;;;4951372;28;34167;-77
2022/05/03 02:08:23;;;;;;;12.00;9.13;;;9.90;31.90;;;;;;4965525;28;34489;-77
2022/05/03 02:11:09;;;;;;;11.80;9.98;;;9.90;29.80;;;;;;4951461;28;34318;-76
2022/05/03 02:17:10;;;;;;;11.40;9.18;;;10.00;31.40;;;;;;4972365;28;34198;-77
2022/05/03 02:19:58;;;;;;;11.15;9.48;;;10.00;31.70;;;;;;4966701;28;35523;-77
2022/05/03 02:22:57;;;;;;;13.20;9.43;;;10.10;33.40;;;;;;4957481;28;34119;-77
2022/05/03 02:25:52;;;;;;;12.57;10.02;;;10.10;33.10;;;;;;4957251;28;34077;-77
2022/05/03 02:28:24;;;;;;;15.50;9.55;;;10.20;32.00;;;;;;4981585;28;34157;-77
2022/05/03 02:30:51;;;;;;;12.93;9.75;;;10.20;30.80;;;;;;4970164;28;35844;-77
2022/05/03 02:33:26;;;;;;;13.98;10.07;;;10.20;30.20;;;;;;4969931;28;34072;-77
2022/05/03 02:35:56;;;;;;;13.85;9.85;;;10.30;30.50;;;;;;4986301;28;34052;-77
2022/05/03 02:38:36;;;;;;;11.20;8.45;;;10.30;30.60;;;;;;5004041;28;34189;-77
2022/05/03 02:41:03;;;;;;;10.27;8.65;;;10.30;30.90;;;;;;5003404;28;34114;-77
2022/05/03 02:43:31;;;;;;;10.65;8.98;;;10.30;30.40;;;;;;4954269;28;34236;-77
2022/05/03 02:46:27;;;;;;;12.18;9.23;;;10.40;30.70;;;;;;4986029;28;34280;-77
2022/05/03 02:49:01;;;;;;;14.02;9.60;;;10.40;33.10;;;;;;4971534;28;34176;-77
2022/05/03 02:51:35;;;;;;;10.70;8.98;;;10.30;30.90;;;;;;4987146;28;36114;-77
2022/05/03 02:54:06;;;;;;;10.27;8.88;;;10.30;30.90;;;;;;4989713;28;34436;-77
2022/05/03 02:56:57;;;;;;;11.57;8.93;;;10.30;31.00;;;;;;4990283;28;34115;-77
2022/05/03 03:02:48;;;;;;;11.85;9.27;;;10.40;33.00;;;;;;5006398;28;34257;-77
2022/05/03 03:05:21;;;;;;;11.70;9.15;;;10.40;33.40;;;;;;5007342;28;34002;-77
2022/05/03 03:07:57;;;;;;;12.60;9.18;;;10.40;31.30;;;;;;4972903;28;34147;-77
2022/05/03 03:10:32;;;;;;;13.05;9.52;;;10.40;31.70;;;;;;4989210;28;34099;-77
2022/05/03 03:13:28;;;;;;;12.00;9.02;;;10.50;32.40;;;;;;4960927;28;35524;-77
2022/05/03 03:15:55;;;;;;;10.65;8.70;;;10.50;34.10;;;;;;4969734;28;34073;-77
2022/05/03 03:18:24;;;;;;;11.52;9.13;;;10.50;31.20;;;;;;5002542;28;34097;-77
2022/05/03 03:20:55;;;;;;;11.60;9.43;;;10.50;31.30;;;;;;4989459;28;34480;-77
2022/05/03 03:23:25;;;;;;;11.07;8.75;;;10.50;31.80;;;;;;4973181;28;35786;-77
2022/05/03 03:25:52;;;;;;;13.25;9.77;;;10.50;31.60;;;;;;4972589;28;34163;-77
2022/05/03 03:28:22;;;;;;;12.90;8.70;;;10.60;31.30;;;;;;4989599;28;34235;-77
2022/05/03 03:30:51;;;;;;;11.13;9.00;;;10.50;31.60;;;;;;4972567;28;34137;-77
2022/05/03 03:33:19;;;;;;;11.75;9.00;;;10.50;31.50;;;;;;4988874;28;35657;-77
2022/05/03 03:35:46;;;;;;;13.25;8.98;;;10.60;31.50;;;;;;4972892;28;34194;-77
2022/05/03 03:38:13;;;;;;;13.48;9.60;;;10.60;31.40;;;;;;4989189;28;34135;-77
2022/05/03 03:40:40;;;;;;;11.70;9.35;;;10.60;31.60;;;;;;4972999;28;34137;-77
2022/05/03 03:43:06;;;;;;;13.02;9.25;;;10.60;31.50;;;;;;5006411;28;35246;-77
2022/05/03 03:45:32;;;;;;;11.85;9.20;;;10.60;31.60;;;;;;4988267;28;34241;-77
2022/05/03 03:48:00;;;;;;;10.85;9.05;;;10.60;31.60;;;;;;4972357;28;34273;-77
2022/05/03 03:50:27;;;;;;;11.35;9.20;;;10.60;31.70;;;;;;4988925;28;33995;-77
2022/05/03 03:52:54;;;;;;;12.75;9.57;;;10.60;31.60;;;;;;4972019;28;35599;-77
2022/05/03 03:55:20;;;;;;;10.93;9.00;;;10.60;31.60;;;;;;5006665;28;34378;-77
2022/05/03 03:57:46;;;;;;;15.18;9.82;;;10.60;31.60;;;;;;5006156;28;34404;-77
2022/05/03 04:00:15;;;;;;;12.45;9.10;;;10.70;31.80;;;;;;4972364;28;34258;-77
2022/05/03 04:02:43;;;;;;;10.75;9.18;;;10.70;32.10;;;;;;4971149;28;35967;-77
2022/05/03 04:05:19;;;;;;;11.45;9.15;;;10.70;32.00;;;;;;5006141;28;34241;-77
2022/05/03 04:07:45;;;;;;;10.63;8.85;;;10.70;33.50;;;;;;4972757;28;34498;-77
2022/05/03 04:10:11;;;;;;;13.63;8.75;;;10.70;32.10;;;;;;4972429;28;34360;-77
2022/05/03 04:12:38;;;;;;;10.45;9.02;;;10.70;32.10;;;;;;5005754;28;34899;-77
2022/05/03 04:15:05;;;;;;;11.07;9.65;;;10.70;32.10;;;;;;4988238;28;34465;-77
2022/05/03 04:17:31;;;;;;;11.48;9.68;;;10.70;32.10;;;;;;5005026;28;34224;-77
2022/05/03 04:19:56;;;;;;;11.80;9.63;;;10.70;32.20;;;;;;4972501;28;34191;-77
2022/05/03 04:22:32;;;;;;;11.00;9.60;;;10.70;32.20;;;;;;4987574;28;36384;-77
2022/05/03 04:24:59;;;;;;;14.68;9.18;;;10.70;33.30;;;;;;4971910;28;34096;-77
2022/05/03 04:27:27;;;;;;;10.20;8.88;;;10.70;32.30;;;;;;4988267;28;34154;-77
2022/05/03 04:29:54;;;;;;;13.13;9.55;;;10.70;32.30;;;;;;4971812;28;34586;-78
2022/05/03 04:32:20;;;;;;;12.25;9.25;;;10.70;32.50;;;;;;4988777;28;34331;-77
2022/05/03 04:34:47;;;;;;;11.50;9.05;;;10.70;32.60;;;;;;4988008;28;34268;-77
2022/05/03 04:37:13;;;;;;;12.38;9.18;;;10.70;32.60;;;;;;4971694;28;34070;-77
2022/05/03 04:39:39;;;;;;;12.65;10.07;;;10.70;32.60;;;;;;4988268;28;34089;-77
2022/05/03 04:42:06;;;;;;;12.23;8.85;;;10.70;32.60;;;;;;4987923;28;35811;-77
2022/05/03 04:44:32;;;;;;;12.05;9.43;;;10.70;32.80;;;;;;4955748;28;34250;-77
2022/05/03 04:46:58;;;;;;;13.40;9.63;;;10.80;32.80;;;;;;4987650;28;34236;-77
2022/05/03 04:49:24;;;;;;;12.45;9.60;;;10.80;32.90;;;;;;4988540;28;34550;-77
2022/05/03 04:51:50;;;;;;;13.05;9.43;;;10.80;32.90;;;;;;4988065;28;35308;-77
2022/05/03 04:54:16;;;;;;;12.13;9.90;;;10.90;32.90;;;;;;5005449;28;34068;-77
2022/05/03 04:56:49;;;;;;;11.90;9.40;;;10.90;32.90;;;;;;5005037;28;34039;-77
2022/05/03 04:59:15;;;;;;;12.80;9.45;;;10.90;33.40;;;;;;5005581;28;34296;-77
2022/05/03 05:01:40;;;;;;;10.50;9.18;;;11.00;32.80;;;;;;4987322;28;35509;-77
2022/05/03 05:04:06;;;;;;;11.77;10.13;;;11.00;32.80;;;;;;4987467;28;34261;-77
2022/05/03 05:06:32;;;;;;;13.05;10.68;;;11.10;32.80;;;;;;5004921;28;34110;-77
2022/05/03 05:08:58;;;;;;;13.38;9.57;;;11.10;32.80;;;;;;4987537;28;34096;-77
2022/05/03 05:11:24;;;;;;;11.57;9.65;;;11.20;32.80;;;;;;4972084;28;35436;-77
2022/05/03 05:13:50;;;;;;;12.20;9.82;;;11.20;32.70;;;;;;4985814;28;34599;-77
2022/05/03 05:16:16;;;;;;;10.95;9.75;;;11.30;32.70;;;;;;5005234;28;34023;-77
2022/05/03 05:18:42;;;;;;;11.10;8.73;;;11.30;32.70;;;;;;4987644;28;34531;-77
2022/05/03 05:21:10;;;;;;;12.18;9.70;;;11.40;32.60;;;;;;4987868;28;35218;-77
2022/05/03 05:23:37;;;;;;;11.25;9.52;;;11.50;32.60;;;;;;4971167;28;34033;-77
2022/05/03 05:26:03;;;;;;;11.55;9.68;;;11.60;32.60;;;;;;4987027;28;34192;-78
2022/05/03 05:28:29;;;;;;;15.60;9.77;;;11.60;32.60;;;;;;4987896;28;34038;-77
2022/05/03 05:30:55;;;;;;;16.02;9.73;;;11.70;32.50;;;;;;4987269;28;35661;-77
2022/05/03 05:33:22;;;;;;;15.23;10.13;;;11.70;32.50;;;;;;5004882;28;34245;-77
2022/05/03 05:35:49;;;;;;;12.77;10.43;;;11.80;32.50;;;;;;4986670;28;34202;-77
2022/05/03 05:38:17;;;;;;;14.77;10.90;;;11.90;32.60;;;;;;4987454;28;34489;-77
2022/05/03 05:40:43;;;;;;;14.55;11.23;;;11.90;32.60;;;;;;4986717;28;36462;-77
2022/05/03 05:43:09;;;;;;;11.77;9.95;;;12.00;32.50;;;;;;4987299;28;34143;-77
2022/05/03 05:45:37;;;;;;;12.25;10.88;;;12.10;32.60;;;;;;4987110;28;34170;-77
2022/05/03 05:48:03;;;;;;;12.55;10.40;;;12.20;32.70;;;;;;4987202;28;34189;-77
2022/05/03 05:50:29;;;;;;;14.38;10.27;;;12.30;32.50;;;;;;4986785;28;35605;-77
2022/05/03 05:55:37;;;;;;;13.80;10.32;;;12.40;32.20;;;;;;5003995;28;34268;-77
2022/05/03 05:58:04;;;;;;;11.45;9.95;;;12.40;31.80;;;;;;4986962;28;34259;-77
2022/05/03 06:00:31;;;;;;;17.95;10.32;;;12.50;31.80;;;;;;4987230;28;34931;-77
2022/05/03 06:02:59;;;;;;;16.00;10.45;;;12.50;31.40;;;;;;4986639;28;34099;-77
2022/05/03 06:05:26;;;;;;;12.63;10.18;;;12.60;31.40;;;;;;5003380;28;34319;-77
2022/05/03 06:07:53;;;;;;;13.80;9.93;;;12.60;31.10;;;;;;5004220;28;34050;-77
2022/05/03 06:10:20;;;;;;;13.40;10.20;;;12.70;31.00;;;;;;4971814;28;35794;-77
2022/05/03 06:12:47;;;;;;;13.82;9.63;;;12.80;30.80;;;;;;4985616;28;34298;-77
2022/05/03 06:15:13;;;;;;;11.48;9.63;;;12.90;30.90;;;;;;4986894;28;34361;-77
2022/05/03 06:17:41;;;;;;;12.30;10.13;;;13.00;30.90;;;;;;5004293;28;34110;-77
2022/05/03 06:20:08;;;;;;;15.55;10.20;;;13.20;30.80;;;;;;4991159;28;35003;-78
2022/05/03 06:22:34;;;;;;;11.15;9.60;;;13.30;30.60;;;;;;4951420;28;34207;-78
2022/05/03 06:25:09;;;;;;;16.02;10.23;;;13.50;30.20;;;;;;4968002;28;34395;-78
2022/05/03 06:27:36;;;;;;;13.32;10.38;;;13.70;30.40;;;;;;4966748;28;34372;-77
2022/05/03 06:30:04;;;;;;;14.20;9.95;;;13.80;29.30;;;;;;4967141;28;36012;-77
2022/05/03 06:32:30;;;;;;;13.20;9.70;;;14.00;28.90;;;;;;4962125;28;34160;-77
2022/05/03 06:34:56;;;;;;;15.52;9.75;;;14.20;28.50;;;;;;4986757;28;34062;-77
2022/05/03 06:37:22;;;;;;;14.15;10.15;;;14.30;28.20;;;;;;4986701;28;34135;-77
2022/05/03 06:39:48;;;;;;;16.23;10.85;;;14.50;28.10;;;;;;5002693;28;34403;-78
2022/05/03 06:42:16;;;;;;;14.82;10.55;;;14.60;27.80;;;;;;4986139;28;34212;-78
2022/05/03 06:44:42;;;;;;;13.15;9.80;;;14.70;27.90;;;;;;4985566;28;34237;-77
2022/05/03 06:47:08;;;;;;;12.55;9.95;;;14.90;27.70;;;;;;4986672;28;34095;-77
2022/05/03 06:53:04;;;;;;;16.48;9.60;;;15.20;28.90;;;;;;4936460;28;34490;-77
2022/05/03 06:55:29;;;;;;;13.70;9.40;;;15.30;27.00;;;;;;4924356;28;34561;-77
2022/05/03 06:57:55;;;;;;;11.13;9.18;;;15.50;26.80;;;;;;4912490;28;34519;-78
2022/05/03 07:00:21;;;;;;;13.52;9.20;;;15.70;26.60;;;;;;4926789;28;36022;-77
2022/05/03 07:02:47;;;;;;;15.68;9.57;;;15.80;25.90;;;;;;4942978;28;34375;-77
2022/05/03 07:05:13;;;;;;;13.02;9.30;;;16.00;25.60;;;;;;4926942;28;34253;-77
2022/05/03 07:07:39;;;;;;;13.32;9.10;;;16.20;24.60;;;;;;4941523;28;34076;-78
2022/05/03 07:10:05;;;;;;;13.52;9.38;;;16.60;24.00;;;;;;4924104;28;35563;-78
2022/05/03 07:12:32;;;;;;;11.38;8.73;;;17.10;23.20;;;;;;4924103;28;34225;-77
2022/05/03 07:15:00;;;;;;;12.70;8.80;;;17.60;21.80;;;;;;4916953;29;33760;-78
2022/05/03 07:22:50;;;;;;;16.48;8.60;;;18.20;20.10;;;;;;4964029;28;34045;-78
2022/05/03 07:25:17;;;;;;;12.77;8.77;;;18.20;20.20;;;;;;4963387;28;34198;-78
2022/05/03 07:27:46;;;;;;;11.43;8.50;;;18.20;20.30;;;;;;4964099;28;34132;-77
2022/05/03 07:30:14;;;;;;;11.77;8.52;;;18.20;19.20;;;;;;4944697;28;35633;-78
2022/05/03 07:32:41;;;;;;;11.13;8.98;;;18.20;20.00;;;;;;4927832;28;34284;-78
2022/05/03 07:35:07;;;;;;;11.40;8.15;;;18.50;19.80;;;;;;4927934;28;34410;-78
2022/05/03 07:37:33;;;;;;;11.23;8.40;;;18.70;19.50;;;;;;4929165;28;34467;-78
2022/05/03 07:39:59;;;;;;;10.45;8.35;;;18.80;19.40;;;;;;4947812;28;36219;-77
2022/05/03 07:42:24;;;;;;;11.70;8.15;;;19.10;19.00;;;;;;4966785;28;34286;-79
2022/05/03 07:44:50;;;;;;;11.13;7.70;;;19.50;18.60;;;;;;4966120;28;34021;-78
2022/05/03 07:47:16;;;;;;;9.60;8.05;;;19.90;18.00;;;;;;4963876;28;34238;-77
2022/05/03 07:49:43;;;;;;;11.45;8.27;;;20.30;17.60;;;;;;4967226;28;35364;-77
2022/05/03 07:52:09;;;;;;;10.73;8.45;;;20.50;17.20;;;;;;4956296;28;34101;-78
2022/05/03 07:54:41;;;;;;;9.93;8.55;;;20.70;16.70;;;;;;4949855;28;34016;-78
2022/05/03 07:57:08;;;;;;;10.05;7.90;;;21.00;14.60;;;;;;4950250;28;34106;-78
2022/05/03 07:59:34;;;;;;;10.05;8.10;;;21.10;16.00;;;;;;4947449;28;36351;-78
2022/05/03 08:02:00;;;;;;;10.73;8.02;;;21.30;15.70;;;;;;4960804;28;34226;-79
2022/05/03 08:04:26;;;;;;;8.50;7.57;;;21.50;15.60;;;;;;4969923;28;34409;-78
2022/05/03 08:06:52;;;;;;;9.93;7.82;;;21.70;15.50;;;;;;4971383;28;34147;-79
2022/05/03 08:09:18;;;;;;;10.95;7.90;;;21.80;15.30;;;;;;4955318;28;34239;-79
2022/05/03 08:11:44;;;;;;;10.55;8.57;;;22.00;15.10;;;;;;4972188;28;34337;-80
2022/05/03 08:14:11;;;;;;;10.45;8.25;;;22.40;15.10;;;;;;4975212;28;34148;-80
2022/05/03 08:16:38;;;;;;;11.55;8.32;;;22.60;14.70;;;;;;5007538;28;34411;-80
2022/05/03 08:19:05;;;;;;;8.40;7.55;;;22.90;14.50;;;;;;4989561;28;35594;-79
2022/05/03 08:21:35;;;;;;;9.82;7.65;;;23.20;14.60;;;;;;4974063;28;34114;-79
2022/05/03 08:24:02;;;;;;;9.98;7.25;;;23.50;13.70;;;;;;5008057;28;34113;-79
2022/05/03 08:26:30;;;;;;;11.90;7.40;;;23.90;13.20;;;;;;4973671;28;34029;-77
2022/05/03 08:28:57;;;;;;;9.77;7.32;;;23.90;13.10;;;;;;4987914;28;36007;-75
2022/05/03 08:31:23;;;;;;;8.23;6.55;;;23.80;12.80;;;;;;4971802;28;34375;-78
2022/05/03 08:33:48;;;;;;;11.00;7.32;;;23.70;12.70;;;;;;4965499;28;34260;-75
2022/05/03 08:36:15;;;;;;;9.75;7.45;;;23.60;12.60;;;;;;4993612;28;34306;-77
2022/05/03 08:44:22;;;;;;;9.73;6.95;;;23.10;12.80;;;;;;4962926;28;34448;-76
2022/05/03 08:46:50;;;;;;;9.02;6.45;;;23.00;10.10;;;;;;4969354;28;34204;-76
2022/05/03 08:49:18;;;;;;;8.73;6.68;;;22.90;11.90;;;;;;4970720;28;35297;-76
2022/05/03 08:51:44;;;;;;;7.93;6.50;;;22.70;12.50;;;;;;4971720;28;34558;-79
2022/05/03 08:54:11;;;;;;;13.65;7.10;;;22.80;12.40;;;;;;4988835;28;34224;-77
2022/05/03 08:56:38;;;;;;;8.43;6.40;;;23.10;12.30;;;;;;4987759;28;34051;-75
2022/05/03 08:59:04;;;;;;;24.65;7.65;;;23.40;11.80;;;;;;4988499;28;34486;-75
2022/05/03 09:01:30;;;;;;;9.18;6.38;;;23.60;11.40;;;;;;5005013;28;34011;-78
2022/05/03 09:03:56;;;;;;;9.68;6.30;;;23.70;11.10;;;;;;5005922;28;34180;-77
2022/05/03 09:06:41;;;;;;;8.20;6.60;;;23.90;10.90;;;;;;4988090;28;34333;-77
2022/05/03 09:09:12;;;;;;;7.97;6.72;;;23.90;7.10;;;;;;5005171;28;35200;-76
2022/05/03 09:11:49;;;;;;;8.23;6.85;;;24.00;8.30;;;;;;5005032;28;33964;-76
2022/05/03 09:14:39;;;;;;;10.82;6.60;;;24.10;7.30;;;;;;4989130;28;34234;-78
2022/05/03 09:17:06;;;;;;;9.25;6.63;;;24.20;6.90;;;;;;5005906;28;34264;-78
2022/05/03 09:19:32;;;;;;;8.40;6.60;;;24.20;9.80;;;;;;4987786;28;36281;-75
2022/05/03 09:24:57;;;;;;;10.10;7.20;;;23.70;10.10;;;;;;5004289;28;34205;-76
2022/05/03 09:27:25;;;;;;;8.85;6.88;;;23.40;6.40;;;;;;4987484;28;34340;-76
2022/05/03 09:30:28;;;;;;;7.97;6.45;;;23.20;10.20;;;;;;4987685;28;35705;-76
2022/05/03 09:32:57;;;;;;;8.57;6.82;;;23.10;6.90;;;;;;5002088;28;34312;-76
2022/05/03 09:35:33;;;;;;;7.82;6.68;;;23.00;9.60;;;;;;5003736;28;34103;-77
2022/05/03 09:38:03;;;;;;;9.27;6.80;;;22.90;7.90;;;;;;4987270;28;34111;-76
2022/05/03 09:40:35;;;;;;;10.07;6.95;;;22.90;10.10;;;;;;5003353;28;35842;-76
2022/05/03 09:43:05;;;;;;;9.95;6.93;;;22.80;10.10;;;;;;4987763;28;34485;-78
2022/05/03 09:45:31;;;;;;;8.57;6.30;;;22.70;10.10;;;;;;4987731;28;34205;-79
2022/05/03 09:47:59;;;;;;;10.63;6.78;;;22.80;9.80;;;;;;4987472;28;34446;-76
2022/05/03 09:50:36;;;;;;;8.80;7.20;;;23.10;9.70;;;;;;4987293;28;35829;-77
2022/05/03 09:53:12;;;;;;;11.00;7.25;;;23.50;8.60;;;;;;5005149;28;34368;-76
2022/05/03 09:55:40;;;;;;;11.73;7.25;;;23.70;5.80;;;;;;4987749;28;34119;-77
2022/05/03 09:58:10;;;;;;;9.63;6.68;;;23.70;8.40;;;;;;4987549;28;34069;-76
2022/05/03 10:00:40;;;;;;;9.52;7.13;;;23.70;7.60;;;;;;4987427;28;36008;-77
2022/05/03 10:03:07;;;;;;;9.07;6.60;;;23.60;7.90;;;;;;4987517;28;34371;-76
2022/05/03 10:05:34;;;;;;;9.32;7.32;;;23.40;8.50;;;;;;4986373;28;34506;-78
2022/05/03 10:08:02;;;;;;;11.23;6.65;;;23.60;8.70;;;;;;5004313;28;34092;-76
2022/05/03 10:10:29;;;;;;;10.95;7.85;;;23.80;8.80;;;;;;5004822;28;34264;-76
2022/05/03 10:12:55;;;;;;;8.85;7.38;;;23.90;8.40;;;;;;4986697;28;34207;-75
2022/05/03 10:20:50;;;;;;;12.27;7.93;;;24.20;8.00;;;;;;5003466;28;34156;-76
2022/05/03 10:23:23;;;;;;;13.52;7.82;;;24.30;7.90;;;;;;4986875;28;34227;-76
2022/05/03 10:25:51;;;;;;;9.73;7.70;;;24.30;6.40;;;;;;4986359;28;34236;-75
2022/05/03 10:28:20;;;;;;;8.60;7.00;;;24.30;7.90;;;;;;4987180;28;34107;-76
2022/05/03 10:31:07;;;;;;;9.27;7.15;;;24.10;8.00;;;;;;4986183;28;36081;-76
2022/05/03 10:33:38;;;;;;;9.25;7.63;;;23.90;6.00;;;;;;4985646;28;34271;-76
2022/05/03 10:36:40;;;;;;;12.70;7.13;;;23.90;6.90;;;;;;4986667;28;34150;-75
2022/05/03 10:39:22;;;;;;;9.98;6.80;;;23.80;4.20;;;;;;4986981;28;34115;-77
2022/05/03 10:41:57;;;;;;;9.02;6.88;;;23.70;8.10;;;;;;4985820;28;35562;-76
2022/05/03 10:44:44;;;;;;;13.32;7.35;;;23.70;6.90;;;;;;5002932;28;34177;-75
2022/05/03 10:47:12;;;;;;;7.35;6.30;;;23.80;6.40;;;;;;5004025;28;34334;-76
2022/05/03 10:50:13;;;;;;;10.10;7.03;;;24.10;8.00;;;;;;4985832;28;34479;-76
2022/05/03 10:52:43;;;;;;;7.32;6.55;;;24.30;4.30;;;;;;4985780;28;35727;-76
2022/05/03 10:55:10;;;;;;;6.90;6.18;;;24.40;7.50;;;;;;4982659;28;34134;-77
2022/05/03 10:58:06;;;;;;;9.93;7.50;;;24.40;8.20;;;;;;4951317;28;34101;-76
2022/05/03 11:01:07;;;;;;;7.43;6.05;;;24.30;4.10;;;;;;4984108;28;34195;-76
2022/05/03 11:03:38;;;;;;;9.43;7.38;;;24.20;4.70;;;;;;4966587;28;35885;-75
2022/05/03 11:06:35;;;;;;;10.70;7.00;;;24.20;5.10;;;;;;4983999;28;34360;-75
2022/05/03 11:09:09;;;;;;;7.75;6.60;;;24.20;6.10;;;;;;4984006;28;34244;-76
2022/05/03 11:11:54;;;;;;;7.10;6.40;;;24.20;6.70;;;;;;4983148;28;34381;-76
2022/05/03 11:14:45;;;;;;;8.65;6.90;;;24.30;6.90;;;;;;4969611;28;35938;-75
2022/05/03 11:17:12;;;;;;;9.98;6.63;;;24.20;3.70;;;;;;4970779;28;34178;-76
2022/05/03 11:19:48;;;;;;;8.32;6.47;;;24.10;7.60;;;;;;4970092;28;34189;-75
2022/05/03 11:22:16;;;;;;;9.45;6.60;;;23.80;6.20;;;;;;4970342;28;34385;-75
2022/05/03 11:24:45;;;;;;;8.70;6.78;;;23.60;7.40;;;;;;4986118;28;34491;-76
2022/05/03 11:27:14;;;;;;;9.13;6.55;;;23.40;7.50;;;;;;4988274;28;34836;-78
2022/05/03 11:29:46;;;;;;;7.28;5.75;;;23.40;7.70;;;;;;4969518;28;34175;-77
2022/05/03 11:32:14;;;;;;;10.68;6.43;;;23.70;6.70;;;;;;4987008;28;34385;-76
2022/05/03 11:34:41;;;;;;;8.43;6.60;;;24.10;7.50;;;;;;4986913;28;34466;-76
2022/05/03 11:37:08;;;;;;;9.98;6.05;;;24.20;7.20;;;;;;4969785;28;34127;-76
2022/05/03 11:39:37;;;;;;;7.75;6.05;;;24.20;6.80;;;;;;4969922;28;34317;-76
2022/05/03 11:42:10;;;;;;;8.88;6.22;;;24.30;6.70;;;;;;4970387;28;34139;-76
2022/05/03 11:44:43;;;;;;;7.20;6.43;;;24.30;5.30;;;;;;4986472;28;34202;-76
2022/05/03 11:47:10;;;;;;;7.00;5.60;;;24.30;4.90;;;;;;4986675;28;34171;-76
2022/05/03 11:49:37;;;;;;;8.18;5.75;;;24.20;6.60;;;;;;4987646;28;34087;-77
2022/05/03 11:57:35;;;;;;;7.68;5.40;;;23.80;6.30;;;;;;4985360;28;34207;-76
2022/05/03 12:00:05;;;;;;;7.55;5.30;;;23.80;5.10;;;;;;4969462;28;34163;-76
2022/05/03 12:02:35;;;;;;;7.43;5.95;;;23.70;6.40;;;;;;4953370;28;34353;-78
2022/05/03 12:05:16;;;;;;;8.48;5.47;;;23.70;6.20;;;;;;4935166;28;34764;-77
2022/05/03 12:07:46;;;;;;;7.05;5.78;;;24.10;4.00;;;;;;4935074;28;34465;-75
2022/05/03 12:10:30;;;;;;;10.30;5.65;;;24.50;5.00;;;;;;4950882;28;34151;-75
2022/05/03 12:13:13;;;;;;;6.65;5.35;;;24.90;4.40;;;;;;4958634;28;34344;-75
2022/05/03 12:15:45;;;;;;;9.18;5.93;;;25.10;2.80;;;;;;4952030;28;35833;-76
2022/05/03 12:18:19;;;;;;;11.93;5.93;;;25.40;4.20;;;;;;4987125;28;34036;-76
2022/05/03 12:20:57;;;;;;;5.88;4.85;;;25.70;2.30;;;;;;4968953;28;34191;-76
2022/05/03 12:23:36;;;;;;;6.90;5.25;;;25.70;3.50;;;;;;4985496;28;34153;-76
2022/05/03 12:26:21;;;;;;;6.03;4.57;;;25.50;4.30;;;;;;4985727;28;34368;-77
2022/05/03 12:28:51;;;;;;;6.90;5.32;;;25.30;2.20;;;;;;4986728;28;34306;-75
2022/05/03 12:31:19;;;;;;;9.48;6.35;;;25.00;4.90;;;;;;4985113;28;34217;-75
2022/05/03 12:33:55;;;;;;;9.48;5.43;;;24.80;4.40;;;;;;4985480;28;34146;-75
2022/05/03 12:36:41;;;;;;;8.70;5.85;;;24.70;4.90;;;;;;4985339;28;34374;-76
2022/05/03 12:39:12;;;;;;;8.50;5.15;;;24.60;1.30;;;;;;4953211;28;34180;-76
2022/05/03 12:41:39;;;;;;;6.65;5.43;;;24.50;4.70;;;;;;4969002;28;34276;-75
2022/05/03 12:44:09;;;;;;;6.72;5.45;;;24.60;5.20;;;;;;4968838;28;34113;-74
2022/05/03 12:46:36;;;;;;;6.40;5.28;;;24.60;4.60;;;;;;4968133;28;35623;-74
2022/05/03 12:49:05;;;;;;;7.10;5.57;;;24.60;5.10;;;;;;4997450;28;34358;-76
2022/05/03 12:51:32;;;;;;;7.50;5.18;;;24.70;4.40;;;;;;4971883;28;34701;-76
2022/05/03 12:54:03;;;;;;;6.32;5.30;;;24.80;4.70;;;;;;5005710;28;34336;-75
2022/05/03 12:59:11;;;;;;;9.75;5.32;;;24.80;4.70;;;;;;4999142;28;34002;-76
2022/05/03 13:01:38;;;;;;;7.05;5.43;;;24.70;4.80;;;;;;4971874;28;34188;-73
2022/05/03 13:04:04;;;;;;;7.05;5.25;;;24.70;4.90;;;;;;4963611;28;34059;-74
2022/05/03 13:06:30;;;;;;;6.30;5.40;;;24.50;4.90;;;;;;5004080;28;34877;-75
2022/05/03 13:08:56;;;;;;;5.50;4.82;;;24.30;5.00;;;;;;5005743;28;34371;-74
2022/05/03 13:11:22;;;;;;;8.07;5.88;;;24.20;5.20;;;;;;4987892;28;34532;-74
2022/05/03 13:13:50;;;;;;;8.80;4.50;;;24.00;5.20;;;;;;4987902;28;34258;-75
2022/05/03 13:16:16;;;;;;;6.55;5.03;;;23.80;5.30;;;;;;4987468;28;34395;-75
2022/05/03 13:18:44;;;;;;;6.10;5.32;;;23.60;5.70;;;;;;4968184;28;34434;-74
2022/05/03 13:21:10;;;;;;;5.63;5.03;;;23.50;5.70;;;;;;4985617;28;34157;-75
2022/05/03 13:23:36;;;;;;;5.55;4.95;;;23.40;5.80;;;;;;4971076;28;34279;-75
2022/05/03 13:26:02;;;;;;;5.32;4.80;;;23.40;5.90;;;;;;4988023;28;36550;-76
2022/05/03 13:28:28;;;;;;;8.48;5.65;;;23.40;5.80;;;;;;4971691;28;34095;-77
2022/05/03 13:30:55;;;;;;;10.23;5.03;;;23.40;5.70;;;;;;4987607;28;34141;-76
2022/05/03 13:33:21;;;;;;;5.88;5.25;;;23.40;5.70;;;;;;5004857;28;34355;-75
2022/05/03 13:41:10;;;;;;;6.13;5.13;;;23.90;5.40;;;;;;4964348;28;34515;-78
2022/05/03 13:43:36;;;;;;;9.10;5.05;;;24.30;5.10;;;;;;4983315;28;34197;-75
2022/05/03 13:46:03;;;;;;;7.65;5.40;;;24.60;5.20;;;;;;4985127;28;36394;-75
2022/05/03 13:48:29;;;;;;;9.45;5.32;;;24.80;4.70;;;;;;5003040;28;34285;-75
2022/05/03 13:50:55;;;;;;;7.88;5.65;;;24.90;4.50;;;;;;4966530;28;34130;-75
2022/05/03 13:53:21;;;;;;;9.15;5.95;;;24.90;4.40;;;;;;4961401;28;34020;-75